sensor_id;sensor_type;location;lat;lon;timestamp;temperature;humidity
21318;DHT22;10818;50.830;6.524;2023-06-24T00:03:34;19.60;99.90
21318;DHT22;10818;50.830;6.524;2023-06-24T00:08:37;19.60;99.90
21318;DHT22;10818;50.830;6.524;2023-06-24T00:13:37;19.50;99.90
21318;DHT22;10818;50.830;6.524;2023-06-24T00:18:38;19.40;99.90
21318;DHT22;10818;50.830;6.524;2023-06-24T00:23:41;19.30;99.90
21318;DHT22;10818;50.830;6.524;2023-06-24T00:28:43;19.30;99.90
21318;DHT22;10818;50.830;6.524;2023-06-24T00:33:43;19.20;99.90
21318;DHT22;10818;50.830;6.524;2023-06-24T00:38:44;19.20;99.90
21318;DHT22;10818;50.830;6.524;2023-06-24T00:43:45;19.10;99.90
21318;DHT22;10818;50.830;6.524;2023-06-24T00:48:45;19.10;99.90
21318;DHT22;10818;50.830;6.524;2023-06-24T00:53:46;19.10;99.90
21318;DHT22;10818;50.830;6.524;2023-06-24T00:58:48;19.10;99.90
21318;DHT22;10818;50.830;6.524;2023-06-24T01:03:50;19.00;99.90
21318;DHT22;10818;50.830;6.524;2023-06-24T01:08:50;19.00;99.90
21318;DHT22;10818;50.830;6.524;2023-06-24T01:13:51;18.90;99.90
21318;DHT22;10818;50.830;6.524;2023-06-24T01:18:52;18.90;99.90
21318;DHT22;10818;50.830;6.524;2023-06-24T01:34:37;18.80;99.90
21318;DHT22;10818;50.830;6.524;2023-06-24T01:39:50;18.80;99.90
21318;DHT22;10818;50.830;6.524;2023-06-24T01:44:52;18.70;99.90
21318;DHT22;10818;50.830;6.524;2023-06-24T01:49:53;18.70;99.90
21318;DHT22;10818;50.830;6.524;2023-06-24T01:54:54;18.60;99.90
21318;DHT22;10818;50.830;6.524;2023-06-24T01:59:55;18.60;99.90
21318;DHT22;10818;50.830;6.524;2023-06-24T02:04:57;18.60;99.90
21318;DHT22;10818;50.830;6.524;2023-06-24T02:09:58;18.40;99.90
21318;DHT22;10818;50.830;6.524;2023-06-24T02:15:00;18.40;99.90
21318;DHT22;10818;50.830;6.524;2023-06-24T02:20:01;18.30;99.90
21318;DHT22;10818;50.830;6.524;2023-06-24T02:25:04;18.20;99.90
21318;DHT22;10818;50.830;6.524;2023-06-24T02:30:05;18.50;99.90
21318;DHT22;10818;50.830;6.524;2023-06-24T02:35:07;18.40;99.90
21318;DHT22;10818;50.830;6.524;2023-06-24T02:40:08;18.20;99.90
21318;DHT22;10818;50.830;6.524;2023-06-24T02:45:10;18.20;99.90
21318;DHT22;10818;50.830;6.524;2023-06-24T02:50:11;18.20;99.90
21318;DHT22;10818;50.830;6.524;2023-06-24T02:55:12;18.20;99.90
21318;DHT22;10818;50.830;6.524;2023-06-24T03:00:13;18.00;99.90
21318;DHT22;10818;50.830;6.524;2023-06-24T03:05:14;18.00;99.90
21318;DHT22;10818;50.830;6.524;2023-06-24T03:10:15;18.00;99.90
21318;DHT22;10818;50.830;6.524;2023-06-24T03:15:16;17.90;99.90
21318;DHT22;10818;50.830;6.524;2023-06-24T03:20:16;17.90;99.90
21318;DHT22;10818;50.830;6.524;2023-06-24T03:25:17;17.80;99.90
21318;DHT22;10818;50.830;6.524;2023-06-24T03:30:17;17.80;99.90
21318;DHT22;10818;50.830;6.524;2023-06-24T03:35:18;18.00;99.90
21318;DHT22;10818;50.830;6.524;2023-06-24T03:40:18;18.00;99.90
21318;DHT22;10818;50.830;6.524;2023-06-24T03:45:19;18.00;99.90
21318;DHT22;10818;50.830;6.524;2023-06-24T03:50:19;18.00;99.90
21318;DHT22;10818;50.830;6.524;2023-06-24T03:55:20;18.20;99.90
21318;DHT22;10818;50.830;6.524;2023-06-24T04:00:20;18.20;99.90
21318;DHT22;10818;50.830;6.524;2023-06-24T04:05:21;18.30;99.90
21318;DHT22;10818;50.830;6.524;2023-06-24T04:10:25;18.50;99.90
21318;DHT22;10818;50.830;6.524;2023-06-24T04:15:25;18.50;99.90
21318;DHT22;10818;50.830;6.524;2023-06-24T04:20:26;18.70;99.90
21318;DHT22;10818;50.830;6.524;2023-06-24T04:25:26;18.80;99.90
21318;DHT22;10818;50.830;6.524;2023-06-24T04:30:27;19.10;99.90
21318;DHT22;10818;50.830;6.524;2023-06-24T04:35:27;19.30;99.90
21318;DHT22;10818;50.830;6.524;2023-06-24T04:40:27;19.60;99.90
21318;DHT22;10818;50.830;6.524;2023-06-24T04:45:28;19.70;99.90
21318;DHT22;10818;50.830;6.524;2023-06-24T04:50:28;20.00;99.90
21318;DHT22;10818;50.830;6.524;2023-06-24T04:55:29;20.20;99.90
21318;DHT22;10818;50.830;6.524;2023-06-24T05:00:30;20.40;99.90
21318;DHT22;10818;50.830;6.524;2023-06-24T05:05:30;20.60;99.90
21318;DHT22;10818;50.830;6.524;2023-06-24T05:10:31;20.70;99.90
21318;DHT22;10818;50.830;6.524;2023-06-24T05:15:31;21.00;99.90
21318;DHT22;10818;50.830;6.524;2023-06-24T05:20:32;21.20;99.90
21318;DHT22;10818;50.830;6.524;2023-06-24T05:25:32;21.50;99.90
21318;DHT22;10818;50.830;6.524;2023-06-24T05:30:33;21.60;99.90
21318;DHT22;10818;50.830;6.524;2023-06-24T05:35:33;21.80;99.90
21318;DHT22;10818;50.830;6.524;2023-06-24T05:40:34;22.10;99.90
21318;DHT22;10818;50.830;6.524;2023-06-24T05:45:34;22.30;99.90
21318;DHT22;10818;50.830;6.524;2023-06-24T05:50:35;22.50;99.90
21318;DHT22;10818;50.830;6.524;2023-06-24T05:55:35;22.70;99.90
21318;DHT22;10818;50.830;6.524;2023-06-24T06:00:36;23.00;99.90
21318;DHT22;10818;50.830;6.524;2023-06-24T06:05:36;23.30;99.90
21318;DHT22;10818;50.830;6.524;2023-06-24T06:10:37;23.70;99.90
21318;DHT22;10818;50.830;6.524;2023-06-24T06:15:37;24.00;99.90
21318;DHT22;10818;50.830;6.524;2023-06-24T06:20:38;24.40;99.90
21318;DHT22;10818;50.830;6.524;2023-06-24T06:25:38;25.40;99.90
21318;DHT22;10818;50.830;6.524;2023-06-24T06:30:39;26.10;99.90
21318;DHT22;10818;50.830;6.524;2023-06-24T06:35:39;26.20;99.90
21318;DHT22;10818;50.830;6.524;2023-06-24T06:40:39;26.00;99.90
21318;DHT22;10818;50.830;6.524;2023-06-24T06:45:41;26.10;99.90
21318;DHT22;10818;50.830;6.524;2023-06-24T06:50:41;27.00;99.90
21318;DHT22;10818;50.830;6.524;2023-06-24T06:55:42;27.90;99.90
21318;DHT22;10818;50.830;6.524;2023-06-24T07:00:43;29.00;99.90
21318;DHT22;10818;50.830;6.524;2023-06-24T07:05:43;32.20;99.90
21318;DHT22;10818;50.830;6.524;2023-06-24T07:10:44;34.50;93.30
21318;DHT22;10818;50.830;6.524;2023-06-24T07:15:44;37.70;84.60
21318;DHT22;10818;50.830;6.524;2023-06-24T07:20:45;39.90;75.50
21318;DHT22;10818;50.830;6.524;2023-06-24T07:25:45;44.40;59.80
21318;DHT22;10818;50.830;6.524;2023-06-24T07:30:46;47.40;49.60
21318;DHT22;10818;50.830;6.524;2023-06-24T07:35:46;49.50;42.90
21318;DHT22;10818;50.830;6.524;2023-06-24T07:40:47;49.80;39.10
21318;DHT22;10818;50.830;6.524;2023-06-24T07:45:47;52.10;37.00
21318;DHT22;10818;50.830;6.524;2023-06-24T07:50:48;52.50;34.50
21318;DHT22;10818;50.830;6.524;2023-06-24T07:55:49;52.80;33.40
21318;DHT22;10818;50.830;6.524;2023-06-24T08:00:49;53.50;32.70
21318;DHT22;10818;50.830;6.524;2023-06-24T08:05:50;53.90;32.20
21318;DHT22;10818;50.830;6.524;2023-06-24T08:10:50;53.40;31.10
21318;DHT22;10818;50.830;6.524;2023-06-24T08:15:51;53.90;30.40
21318;DHT22;10818;50.830;6.524;2023-06-24T08:20:51;53.90;30.50
21318;DHT22;10818;50.830;6.524;2023-06-24T08:25:52;52.60;31.70
21318;DHT22;10818;50.830;6.524;2023-06-24T08:30:52;46.70;35.10
21318;DHT22;10818;50.830;6.524;2023-06-24T08:35:53;42.20;41.20
21318;DHT22;10818;50.830;6.524;2023-06-24T08:40:53;39.60;43.50
21318;DHT22;10818;50.830;6.524;2023-06-24T08:45:54;37.30;46.80
21318;DHT22;10818;50.830;6.524;2023-06-24T08:50:54;35.90;49.30
21318;DHT22;10818;50.830;6.524;2023-06-24T08:55:56;35.20;52.60
21318;DHT22;10818;50.830;6.524;2023-06-24T09:00:57;34.00;53.40
21318;DHT22;10818;50.830;6.524;2023-06-24T09:05:58;33.90;53.40
21318;DHT22;10818;50.830;6.524;2023-06-24T09:10:58;33.50;54.70
21318;DHT22;10818;50.830;6.524;2023-06-24T09:15:59;33.10;55.30
21318;DHT22;10818;50.830;6.524;2023-06-24T09:21:00;32.90;55.70
21318;DHT22;10818;50.830;6.524;2023-06-24T09:26:01;32.90;58.40
21318;DHT22;10818;50.830;6.524;2023-06-24T09:31:08;32.50;55.80
21318;DHT22;10818;50.830;6.524;2023-06-24T09:36:12;32.40;57.40
21318;DHT22;10818;50.830;6.524;2023-06-24T09:41:14;32.70;55.90
21318;DHT22;10818;50.830;6.524;2023-06-24T09:46:14;32.50;55.40
21318;DHT22;10818;50.830;6.524;2023-06-24T09:51:15;32.40;54.30
21318;DHT22;10818;50.830;6.524;2023-06-24T09:56:16;32.70;55.00
21318;DHT22;10818;50.830;6.524;2023-06-24T10:01:17;32.10;57.40
21318;DHT22;10818;50.830;6.524;2023-06-24T10:06:17;32.20;57.90
21318;DHT22;10818;50.830;6.524;2023-06-24T10:11:18;31.90;58.60
21318;DHT22;10818;50.830;6.524;2023-06-24T10:16:19;32.40;55.60
21318;DHT22;10818;50.830;6.524;2023-06-24T10:21:19;32.60;58.70
21318;DHT22;10818;50.830;6.524;2023-06-24T10:26:27;32.40;56.70
21318;DHT22;10818;50.830;6.524;2023-06-24T10:32:02;32.20;52.00
21318;DHT22;10818;50.830;6.524;2023-06-24T10:36:55;32.10;53.70
21318;DHT22;10818;50.830;6.524;2023-06-24T10:41:56;32.40;57.60
21318;DHT22;10818;50.830;6.524;2023-06-24T10:46:56;32.50;53.60
21318;DHT22;10818;50.830;6.524;2023-06-24T10:51:57;32.00;54.60
21318;DHT22;10818;50.830;6.524;2023-06-24T10:56:58;32.20;55.60
21318;DHT22;10818;50.830;6.524;2023-06-24T11:01:58;32.40;56.90
21318;DHT22;10818;50.830;6.524;2023-06-24T11:06:59;32.00;55.60
21318;DHT22;10818;50.830;6.524;2023-06-24T11:12:02;32.10;56.40
21318;DHT22;10818;50.830;6.524;2023-06-24T11:17:02;32.10;54.70
21318;DHT22;10818;50.830;6.524;2023-06-24T11:22:03;31.80;52.60
21318;DHT22;10818;50.830;6.524;2023-06-24T11:27:04;31.90;53.70
21318;DHT22;10818;50.830;6.524;2023-06-24T11:32:06;31.70;56.60
21318;DHT22;10818;50.830;6.524;2023-06-24T11:37:30;31.50;56.10
21318;DHT22;10818;50.830;6.524;2023-06-24T11:42:31;31.60;55.00
21318;DHT22;10818;50.830;6.524;2023-06-24T11:47:33;31.80;56.00
21318;DHT22;10818;50.830;6.524;2023-06-24T11:52:47;31.60;55.30
21318;DHT22;10818;50.830;6.524;2023-06-24T11:57:56;31.70;54.10
21318;DHT22;10818;50.830;6.524;2023-06-24T12:02:57;31.80;54.90
21318;DHT22;10818;50.830;6.524;2023-06-24T12:07:59;31.70;54.70
21318;DHT22;10818;50.830;6.524;2023-06-24T12:13:00;32.00;54.00
21318;DHT22;10818;50.830;6.524;2023-06-24T12:18:01;32.10;53.00
21318;DHT22;10818;50.830;6.524;2023-06-24T12:23:05;32.00;52.40
21318;DHT22;10818;50.830;6.524;2023-06-24T12:28:06;31.50;52.30
21318;DHT22;10818;50.830;6.524;2023-06-24T12:33:07;31.50;51.90
21318;DHT22;10818;50.830;6.524;2023-06-24T12:38:09;31.60;52.70
21318;DHT22;10818;50.830;6.524;2023-06-24T12:43:09;31.40;52.40
21318;DHT22;10818;50.830;6.524;2023-06-24T12:48:10;31.50;51.30
21318;DHT22;10818;50.830;6.524;2023-06-24T12:53:10;30.90;52.80
21318;DHT22;10818;50.830;6.524;2023-06-24T12:58:14;30.90;52.40
21318;DHT22;10818;50.830;6.524;2023-06-24T13:03:15;31.10;51.70
21318;DHT22;10818;50.830;6.524;2023-06-24T13:08:15;31.30;54.60
21318;DHT22;10818;50.830;6.524;2023-06-24T13:13:16;31.50;51.60
21318;DHT22;10818;50.830;6.524;2023-06-24T13:18:16;31.30;51.20
21318;DHT22;10818;50.830;6.524;2023-06-24T13:23:18;30.90;50.80
21318;DHT22;10818;50.830;6.524;2023-06-24T13:28:18;30.80;50.20
21318;DHT22;10818;50.830;6.524;2023-06-24T13:33:19;30.50;51.20
21318;DHT22;10818;50.830;6.524;2023-06-24T13:38:19;30.20;50.10
21318;DHT22;10818;50.830;6.524;2023-06-24T13:43:20;30.80;52.00
21318;DHT22;10818;50.830;6.524;2023-06-24T13:48:21;30.80;51.10
21318;DHT22;10818;50.830;6.524;2023-06-24T13:53:21;31.30;51.60
21318;DHT22;10818;50.830;6.524;2023-06-24T13:58:22;31.40;49.10
21318;DHT22;10818;50.830;6.524;2023-06-24T14:03:22;31.60;51.70
21318;DHT22;10818;50.830;6.524;2023-06-24T14:08:23;31.40;49.40
21318;DHT22;10818;50.830;6.524;2023-06-24T14:13:24;31.50;49.90
21318;DHT22;10818;50.830;6.524;2023-06-24T14:18:24;31.50;49.70
21318;DHT22;10818;50.830;6.524;2023-06-24T14:23:28;31.40;48.70
21318;DHT22;10818;50.830;6.524;2023-06-24T14:28:28;31.60;49.40
21318;DHT22;10818;50.830;6.524;2023-06-24T14:33:29;31.40;49.10
21318;DHT22;10818;50.830;6.524;2023-06-24T14:38:29;31.30;48.60
21318;DHT22;10818;50.830;6.524;2023-06-24T14:43:30;31.10;49.40
21318;DHT22;10818;50.830;6.524;2023-06-24T14:48:30;31.20;50.50
21318;DHT22;10818;50.830;6.524;2023-06-24T14:53:31;31.40;50.30
21318;DHT22;10818;50.830;6.524;2023-06-24T14:58:31;31.30;48.20
21318;DHT22;10818;50.830;6.524;2023-06-24T15:03:32;31.30;49.10
21318;DHT22;10818;50.830;6.524;2023-06-24T15:08:32;31.40;50.20
21318;DHT22;10818;50.830;6.524;2023-06-24T15:13:33;31.10;48.90
21318;DHT22;10818;50.830;6.524;2023-06-24T15:18:33;31.20;47.80
21318;DHT22;10818;50.830;6.524;2023-06-24T15:23:33;31.10;47.00
21318;DHT22;10818;50.830;6.524;2023-06-24T15:28:34;31.20;48.20
21318;DHT22;10818;50.830;6.524;2023-06-24T15:33:34;31.20;47.80
21318;DHT22;10818;50.830;6.524;2023-06-24T15:38:35;31.20;48.60
21318;DHT22;10818;50.830;6.524;2023-06-24T15:43:35;31.10;47.90
21318;DHT22;10818;50.830;6.524;2023-06-24T15:48:36;31.20;47.20
21318;DHT22;10818;50.830;6.524;2023-06-24T15:53:39;31.20;47.90
21318;DHT22;10818;50.830;6.524;2023-06-24T15:58:39;30.90;48.00
21318;DHT22;10818;50.830;6.524;2023-06-24T16:03:40;30.70;50.00
21318;DHT22;10818;50.830;6.524;2023-06-24T16:08:40;30.90;49.10
21318;DHT22;10818;50.830;6.524;2023-06-24T16:13:41;31.10;49.20
21318;DHT22;10818;50.830;6.524;2023-06-24T16:18:41;30.60;49.30
21318;DHT22;10818;50.830;6.524;2023-06-24T16:23:42;30.30;49.00
21318;DHT22;10818;50.830;6.524;2023-06-24T16:28:42;30.20;48.80
21318;DHT22;10818;50.830;6.524;2023-06-24T16:33:43;30.10;49.60
21318;DHT22;10818;50.830;6.524;2023-06-24T16:38:43;30.40;49.80
21318;DHT22;10818;50.830;6.524;2023-06-24T16:43:47;30.60;48.30
21318;DHT22;10818;50.830;6.524;2023-06-24T16:48:48;30.50;49.40
21318;DHT22;10818;50.830;6.524;2023-06-24T16:53:48;30.40;48.00
21318;DHT22;10818;50.830;6.524;2023-06-24T16:58:49;30.30;46.60
21318;DHT22;10818;50.830;6.524;2023-06-24T17:03:49;30.00;47.60
21318;DHT22;10818;50.830;6.524;2023-06-24T17:08:50;30.20;49.20
21318;DHT22;10818;50.830;6.524;2023-06-24T17:13:50;30.20;48.00
21318;DHT22;10818;50.830;6.524;2023-06-24T17:18:51;29.70;47.40
21318;DHT22;10818;50.830;6.524;2023-06-24T17:23:51;29.60;49.30
21318;DHT22;10818;50.830;6.524;2023-06-24T17:28:52;29.50;50.20
21318;DHT22;10818;50.830;6.524;2023-06-24T17:33:53;29.30;50.10
21318;DHT22;10818;50.830;6.524;2023-06-24T17:38:53;29.50;50.50
21318;DHT22;10818;50.830;6.524;2023-06-24T17:43:54;29.60;50.60
21318;DHT22;10818;50.830;6.524;2023-06-24T17:48:54;29.30;50.10
21318;DHT22;10818;50.830;6.524;2023-06-24T17:53:54;28.90;51.50
21318;DHT22;10818;50.830;6.524;2023-06-24T17:58:55;29.20;52.10
21318;DHT22;10818;50.830;6.524;2023-06-24T18:03:55;29.20;51.70
21318;DHT22;10818;50.830;6.524;2023-06-24T18:08:56;29.20;50.90
21318;DHT22;10818;50.830;6.524;2023-06-24T18:13:56;29.10;50.00
21318;DHT22;10818;50.830;6.524;2023-06-24T18:18:57;29.00;50.60
21318;DHT22;10818;50.830;6.524;2023-06-24T18:23:57;29.00;49.40
21318;DHT22;10818;50.830;6.524;2023-06-24T18:28:58;28.90;49.10
21318;DHT22;10818;50.830;6.524;2023-06-24T18:33:59;28.80;49.70
21318;DHT22;10818;50.830;6.524;2023-06-24T18:38:59;28.60;49.20
21318;DHT22;10818;50.830;6.524;2023-06-24T18:44:00;28.50;49.30
21318;DHT22;10818;50.830;6.524;2023-06-24T18:49:05;28.30;48.70
21318;DHT22;10818;50.830;6.524;2023-06-24T18:54:05;28.10;49.20
21318;DHT22;10818;50.830;6.524;2023-06-24T18:59:06;27.90;51.40
21318;DHT22;10818;50.830;6.524;2023-06-24T19:04:06;27.60;54.40
21318;DHT22;10818;50.830;6.524;2023-06-24T19:09:06;27.20;56.00
21318;DHT22;10818;50.830;6.524;2023-06-24T19:14:07;27.10;53.10
21318;DHT22;10818;50.830;6.524;2023-06-24T19:19:07;26.90;54.50
21318;DHT22;10818;50.830;6.524;2023-06-24T19:24:08;26.50;58.20
21318;DHT22;10818;50.830;6.524;2023-06-24T19:29:09;26.20;56.70
21318;DHT22;10818;50.830;6.524;2023-06-24T19:34:09;25.90;59.90
21318;DHT22;10818;50.830;6.524;2023-06-24T19:39:11;25.60;60.50
21318;DHT22;10818;50.830;6.524;2023-06-24T19:44:12;25.40;63.70
21318;DHT22;10818;50.830;6.524;2023-06-24T19:49:12;25.10;64.30
21318;DHT22;10818;50.830;6.524;2023-06-24T19:54:13;24.80;68.80
21318;DHT22;10818;50.830;6.524;2023-06-24T19:59:13;24.60;71.10
21318;DHT22;10818;50.830;6.524;2023-06-24T20:04:14;24.20;73.60
21318;DHT22;10818;50.830;6.524;2023-06-24T20:09:14;24.00;74.30
21318;DHT22;10818;50.830;6.524;2023-06-24T20:14:15;23.80;79.90
21318;DHT22;10818;50.830;6.524;2023-06-24T20:19:15;23.70;80.80
21318;DHT22;10818;50.830;6.524;2023-06-24T20:24:16;23.50;84.30
21318;DHT22;10818;50.830;6.524;2023-06-24T20:29:16;23.40;86.80
21318;DHT22;10818;50.830;6.524;2023-06-24T20:34:17;23.20;88.40
21318;DHT22;10818;50.830;6.524;2023-06-24T20:39:17;23.10;90.30
21318;DHT22;10818;50.830;6.524;2023-06-24T20:44:18;23.00;92.80
21318;DHT22;10818;50.830;6.524;2023-06-24T20:49:18;22.90;96.50
21318;DHT22;10818;50.830;6.524;2023-06-24T20:54:19;22.70;99.90
21318;DHT22;10818;50.830;6.524;2023-06-24T20:59:19;22.60;99.90
21318;DHT22;10818;50.830;6.524;2023-06-24T21:04:20;22.50;99.90
21318;DHT22;10818;50.830;6.524;2023-06-24T21:09:21;22.40;99.90
21318;DHT22;10818;50.830;6.524;2023-06-24T21:14:22;22.30;99.90
21318;DHT22;10818;50.830;6.524;2023-06-24T21:19:23;22.20;99.90
21318;DHT22;10818;50.830;6.524;2023-06-24T21:24:24;22.10;99.90
21318;DHT22;10818;50.830;6.524;2023-06-24T21:29:24;22.10;99.90
21318;DHT22;10818;50.830;6.524;2023-06-24T21:34:25;22.00;99.90
21318;DHT22;10818;50.830;6.524;2023-06-24T21:39:26;22.00;99.90
21318;DHT22;10818;50.830;6.524;2023-06-24T21:44:26;21.80;99.90
21318;DHT22;10818;50.830;6.524;2023-06-24T21:49:27;21.70;99.90
21318;DHT22;10818;50.830;6.524;2023-06-24T21:54:27;21.70;99.90
21318;DHT22;10818;50.830;6.524;2023-06-24T21:59:28;21.60;99.90
21318;DHT22;10818;50.830;6.524;2023-06-24T22:04:29;21.40;99.90
21318;DHT22;10818;50.830;6.524;2023-06-24T22:09:29;21.30;99.90
21318;DHT22;10818;50.830;6.524;2023-06-24T22:14:30;21.30;99.90
21318;DHT22;10818;50.830;6.524;2023-06-24T22:19:31;21.20;99.90
21318;DHT22;10818;50.830;6.524;2023-06-24T22:24:31;21.20;99.90
21318;DHT22;10818;50.830;6.524;2023-06-24T22:29:32;21.10;99.90
21318;DHT22;10818;50.830;6.524;2023-06-24T22:34:33;21.00;99.90
21318;DHT22;10818;50.830;6.524;2023-06-24T22:39:33;20.90;99.90
21318;DHT22;10818;50.830;6.524;2023-06-24T22:44:34;20.90;99.90
21318;DHT22;10818;50.830;6.524;2023-06-24T22:49:34;20.80;99.90
21318;DHT22;10818;50.830;6.524;2023-06-24T22:54:35;20.80;99.90
21318;DHT22;10818;50.830;6.524;2023-06-24T22:59:35;20.80;99.90
21318;DHT22;10818;50.830;6.524;2023-06-24T23:04:36;20.80;99.90
21318;DHT22;10818;50.830;6.524;2023-06-24T23:09:36;20.50;99.90
21318;DHT22;10818;50.830;6.524;2023-06-24T23:14:37;20.40;99.90
21318;DHT22;10818;50.830;6.524;2023-06-24T23:19:38;20.50;99.90
21318;DHT22;10818;50.830;6.524;2023-06-24T23:24:39;20.40;99.90
21318;DHT22;10818;50.830;6.524;2023-06-24T23:29:40;20.40;99.90
21318;DHT22;10818;50.830;6.524;2023-06-24T23:34:42;20.30;99.90
21318;DHT22;10818;50.830;6.524;2023-06-24T23:39:42;20.20;99.90
21318;DHT22;10818;50.830;6.524;2023-06-24T23:44:43;20.20;99.90
21318;DHT22;10818;50.830;6.524;2023-06-24T23:49:43;20.10;99.90
21318;DHT22;10818;50.830;6.524;2023-06-24T23:54:45;20.10;99.90
21318;DHT22;10818;50.830;6.524;2023-06-24T23:59:45;20.00;99.90
